Time;durP1;ratioP1;P1;durP2;ratioP2;P2;SDS_P1;SDS_P2;PMS_P1;PMS_P2;Temp;Humidity;BMP_temperature;BMP_pressure;BME280_temperature;BME280_humidity;BME280_pressure;Samples;Min_cycle;Max_cycle;Signal;HPM_P1;HPM_P2
2021/01/22 00:02:22;;;;;;;9.27;5.65;;;7.40;99.90;;;;;;5072136;28;20054;-65
2021/01/22 00:04:49;;;;;;;5.82;4.53;;;7.30;99.90;;;;;;5072393;28;20050;-66
2021/01/22 00:07:15;;;;;;;7.15;5.28;;;7.30;99.90;;;;;;5072170;28;20044;-65
2021/01/22 00:09:42;;;;;;;6.57;5.38;;;7.30;99.90;;;;;;5072449;28;20051;-66
2021/01/22 00:12:08;;;;;;;7.25;4.82;;;7.30;99.90;;;;;;5071617;28;20055;-66
2021/01/22 00:14:35;;;;;;;7.80;5.63;;;7.30;99.90;;;;;;5072524;28;20140;-65
2021/01/22 00:17:01;;;;;;;7.32;5.18;;;7.30;99.90;;;;;;5071349;28;20059;-66
2021/01/22 00:19:28;;;;;;;7.45;5.15;;;7.30;99.90;;;;;;5061649;28;20063;-65
2021/01/22 00:21:54;;;;;;;7.10;5.43;;;7.20;99.90;;;;;;5054499;28;20044;-65
2021/01/22 00:24:21;;;;;;;6.53;4.75;;;7.20;99.90;;;;;;5072257;28;20048;-64
2021/01/22 00:26:48;;;;;;;9.18;5.93;;;7.20;99.90;;;;;;5067731;28;20073;-65
2021/01/22 00:29:14;;;;;;;14.75;9.30;;;7.20;99.90;;;;;;5072250;28;20064;-65
2021/01/22 00:31:41;;;;;;;10.25;6.70;;;7.20;99.90;;;;;;5071245;28;20045;-66
2021/01/22 00:34:08;;;;;;;8.80;5.97;;;7.10;99.90;;;;;;5071857;28;20127;-66
2021/01/22 00:36:34;;;;;;;8.82;5.95;;;7.10;99.90;;;;;;5053518;28;20643;-66
2021/01/22 00:39:01;;;;;;;8.23;5.70;;;7.00;99.90;;;;;;5072259;28;20048;-65
2021/01/22 00:41:27;;;;;;;8.60;5.70;;;7.00;99.90;;;;;;5065235;28;20500;-65
2021/01/22 00:43:53;;;;;;;7.05;5.10;;;7.00;99.90;;;;;;5074687;28;20055;-66
2021/01/22 00:46:20;;;;;;;7.20;5.20;;;7.00;99.90;;;;;;5070531;28;20437;-66
2021/01/22 00:48:46;;;;;;;7.38;5.15;;;7.10;99.90;;;;;;5071004;28;20059;-67
2021/01/22 00:51:13;;;;;;;6.10;4.30;;;7.10;99.90;;;;;;5071551;28;20478;-66
2021/01/22 00:53:40;;;;;;;6.07;4.22;;;7.10;99.90;;;;;;5071426;28;20040;-66
2021/01/22 00:56:06;;;;;;;8.70;4.72;;;7.10;99.90;;;;;;5071831;28;20387;-66
2021/01/22 00:58:33;;;;;;;7.68;4.93;;;7.10;99.90;;;;;;5071246;28;20044;-66
2021/01/22 01:00:59;;;;;;;6.50;4.53;;;7.10;99.90;;;;;;5071875;28;20044;-66
2021/01/22 01:03:27;;;;;;;7.00;4.80;;;7.10;99.90;;;;;;5064443;28;20059;-67
2021/01/22 01:05:54;;;;;;;7.75;5.05;;;7.10;99.90;;;;;;5071717;28;20091;-66
2021/01/22 01:08:20;;;;;;;7.97;4.53;;;7.10;99.90;;;;;;5070624;28;20047;-66
2021/01/22 01:10:47;;;;;;;5.32;4.13;;;7.10;99.90;;;;;;5053434;28;20091;-66
2021/01/22 01:13:13;;;;;;;5.65;4.40;;;7.10;99.90;;;;;;5069595;28;20044;-66
2021/01/22 01:15:40;;;;;;;6.28;4.20;;;7.10;99.90;;;;;;5070888;28;20063;-66
2021/01/22 01:18:06;;;;;;;6.13;3.90;;;7.20;99.90;;;;;;5070430;28;20051;-66
2021/01/22 01:20:33;;;;;;;5.20;4.00;;;7.20;99.90;;;;;;5071234;28;20052;-67
2021/01/22 01:22:59;;;;;;;5.75;4.18;;;7.20;99.90;;;;;;5070540;28;20067;-67
2021/01/22 01:25:26;;;;;;;6.55;3.83;;;7.10;99.90;;;;;;5070516;28;20067;-66
2021/01/22 01:27:53;;;;;;;5.72;4.05;;;7.10;99.90;;;;;;5066751;28;20047;-66
2021/01/22 01:30:20;;;;;;;4.55;3.42;;;7.10;99.90;;;;;;5066928;28;20044;-66
2021/01/22 01:32:46;;;;;;;7.20;3.70;;;7.10;99.90;;;;;;5066239;28;20052;-66
2021/01/22 01:35:13;;;;;;;5.50;3.53;;;7.10;99.90;;;;;;5070719;28;20380;-66
2021/01/22 01:37:39;;;;;;;5.13;3.20;;;7.10;99.90;;;;;;5070832;28;20406;-66
2021/01/22 01:40:06;;;;;;;4.13;2.85;;;7.00;99.90;;;;;;5066988;28;20588;-66
2021/01/22 01:42:34;;;;;;;4.75;3.13;;;7.00;99.90;;;;;;5058071;28;20088;-66
2021/01/22 01:45:01;;;;;;;5.65;3.78;;;6.90;99.90;;;;;;5074617;28;20518;-66
2021/01/22 01:47:27;;;;;;;5.30;3.40;;;6.90;99.90;;;;;;5069690;28;20048;-66
2021/01/22 01:49:54;;;;;;;4.85;3.50;;;6.90;99.90;;;;;;5070866;28;20454;-66
2021/01/22 01:52:22;;;;;;;5.13;3.60;;;6.90;99.90;;;;;;5070551;28;20502;-66
2021/01/22 01:54:48;;;;;;;4.75;3.50;;;6.90;99.90;;;;;;5070336;28;20570;-66
2021/01/22 01:57:15;;;;;;;13.80;7.30;;;6.90;99.90;;;;;;5052579;28;20055;-66
2021/01/22 01:59:42;;;;;;;5.85;3.78;;;6.90;99.90;;;;;;5070199;28;20048;-66
2021/01/22 02:02:09;;;;;;;4.82;3.47;;;6.90;99.90;;;;;;5070441;28;20051;-66
2021/01/22 02:04:37;;;;;;;4.95;3.40;;;7.00;99.90;;;;;;5070040;28;20048;-66
2021/01/22 02:07:04;;;;;;;5.45;3.40;;;7.00;99.90;;;;;;5070570;28;20040;-66
2021/01/22 02:09:30;;;;;;;6.13;3.20;;;7.00;99.90;;;;;;5068809;28;20056;-66
2021/01/22 02:11:58;;;;;;;5.28;3.55;;;7.10;99.90;;;;;;5064126;28;20055;-67
2021/01/22 02:14:26;;;;;;;4.80;3.40;;;7.10;99.90;;;;;;5069384;28;20044;-66
2021/01/22 02:16:53;;;;;;;4.18;3.10;;;7.10;99.90;;;;;;5070240;28;20044;-66
2021/01/22 02:19:34;;;;;;;4.82;3.20;;;7.10;99.90;;;;;;5069710;28;20049;-67
2021/01/22 02:22:01;;;;;;;4.75;3.25;;;7.00;99.90;;;;;;5069950;28;20045;-67
2021/01/22 02:24:29;;;;;;;4.50;3.05;;;7.10;99.90;;;;;;5069733;28;20470;-64
2021/01/22 02:26:56;;;;;;;5.60;3.35;;;7.10;99.90;;;;;;5066344;28;20387;-65
2021/01/22 02:29:23;;;;;;;7.15;3.55;;;7.10;99.90;;;;;;5070024;28;20053;-67
2021/01/22 02:31:53;;;;;;;4.53;3.10;;;7.00;99.90;;;;;;5065964;28;20041;-65
2021/01/22 02:34:28;;;;;;;4.90;3.25;;;7.10;99.90;;;;;;5069838;28;20128;-66
2021/01/22 02:36:59;;;;;;;5.60;3.05;;;7.00;99.90;;;;;;5068989;28;20052;-65
2021/01/22 02:39:31;;;;;;;4.78;3.28;;;7.10;99.90;;;;;;5069853;28;20060;-65
2021/01/22 02:41:58;;;;;;;4.90;2.90;;;7.20;99.90;;;;;;5062948;28;20048;-65
2021/01/22 02:44:25;;;;;;;4.53;3.10;;;7.30;99.90;;;;;;5073390;28;20056;-64
2021/01/22 02:46:52;;;;;;;3.83;2.78;;;7.30;99.90;;;;;;5069355;28;20063;-65
2021/01/22 02:49:19;;;;;;;4.03;3.05;;;7.40;99.90;;;;;;5069734;28;20044;-64
2021/01/22 02:51:46;;;;;;;4.70;3.28;;;7.40;99.90;;;;;;5069729;28;20128;-65
2021/01/22 02:54:13;;;;;;;4.72;2.90;;;7.60;99.90;;;;;;5051359;28;20045;-66
2021/01/22 02:57:00;;;;;;;5.55;2.75;;;7.80;99.90;;;;;;5070032;28;20063;-65
2021/01/22 02:59:35;;;;;;;5.32;2.97;;;7.80;99.90;;;;;;5069293;28;20080;-64
2021/01/22 03:02:17;;;;;;;3.95;2.75;;;7.90;99.90;;;;;;5070136;28;20048;-65
2021/01/22 03:04:43;;;;;;;3.58;2.45;;;7.90;99.90;;;;;;5067699;28;20490;-64
2021/01/22 03:07:14;;;;;;;3.10;2.63;;;7.90;99.90;;;;;;5070005;28;20044;-64
2021/01/22 03:09:45;;;;;;;3.55;2.70;;;8.00;99.90;;;;;;5051882;28;20047;-65
2021/01/22 03:12:13;;;;;;;3.92;2.50;;;8.10;99.90;;;;;;5068532;28;20044;-65
2021/01/22 03:14:40;;;;;;;4.53;2.40;;;8.20;99.90;;;;;;5069134;28;20052;-65
2021/01/22 03:17:08;;;;;;;3.83;2.40;;;8.30;99.90;;;;;;5069709;28;20051;-66
2021/01/22 03:19:46;;;;;;;5.10;2.92;;;8.50;99.90;;;;;;5069301;28;20127;-65
2021/01/22 03:22:14;;;;;;;6.70;2.88;;;8.50;99.90;;;;;;5064286;28;20040;-65
2021/01/22 03:24:42;;;;;;;4.00;2.60;;;8.50;99.90;;;;;;5069047;28;20058;-65
2021/01/22 03:27:09;;;;;;;4.20;2.60;;;8.50;99.90;;;;;;5072238;28;20045;-65
2021/01/22 03:29:38;;;;;;;5.63;3.17;;;8.50;99.90;;;;;;5072888;28;20123;-65
2021/01/22 03:32:06;;;;;;;3.58;2.70;;;8.50;99.90;;;;;;5071903;28;20051;-66
2021/01/22 03:34:33;;;;;;;3.90;2.75;;;8.50;99.90;;;;;;5073032;28;20049;-65
2021/01/22 03:37:00;;;;;;;3.75;2.63;;;8.40;99.90;;;;;;5072796;28;20044;-65
2021/01/22 03:39:27;;;;;;;4.15;2.60;;;8.40;99.90;;;;;;5070809;28;20063;-66
2021/01/22 03:41:54;;;;;;;4.97;2.70;;;8.30;99.90;;;;;;5066286;28;20049;-65
2021/01/22 03:44:20;;;;;;;4.20;2.60;;;8.30;99.90;;;;;;5074086;28;20048;-65
2021/01/22 03:46:48;;;;;;;4.90;3.25;;;8.30;99.90;;;;;;5072808;28;20045;-65
2021/01/22 03:49:14;;;;;;;5.07;2.97;;;8.40;99.90;;;;;;5072679;28;20406;-65
2021/01/22 03:51:41;;;;;;;5.28;2.80;;;8.40;99.90;;;;;;5072688;28;20049;-66
2021/01/22 03:54:07;;;;;;;6.43;3.08;;;8.30;99.90;;;;;;5072263;28;20056;-65
2021/01/22 03:56:34;;;;;;;5.35;2.97;;;8.30;99.90;;;;;;5072591;28;20055;-66
2021/01/22 03:59:00;;;;;;;4.38;3.03;;;8.30;99.90;;;;;;5070621;28;20048;-65
2021/01/22 04:01:29;;;;;;;4.20;2.78;;;8.30;99.90;;;;;;5072449;28;20464;-66
2021/01/22 04:03:55;;;;;;;5.25;2.80;;;8.40;99.90;;;;;;5071765;28;20040;-64
2021/01/22 04:06:22;;;;;;;5.78;2.75;;;8.30;99.90;;;;;;5072661;28;20057;-65
2021/01/22 04:08:49;;;;;;;5.07;2.88;;;8.30;99.90;;;;;;5071689;28;20409;-66
2021/01/22 04:11:16;;;;;;;5.63;2.97;;;8.20;99.90;;;;;;5072505;28;20048;-66
2021/01/22 04:13:44;;;;;;;5.40;2.92;;;8.20;99.90;;;;;;5071989;28;20056;-66
2021/01/22 04:16:14;;;;;;;6.80;3.13;;;8.10;99.90;;;;;;5072311;28;20139;-66
2021/01/22 04:18:40;;;;;;;6.47;2.90;;;8.00;99.90;;;;;;5071550;28;20053;-66
2021/01/22 04:21:07;;;;;;;4.03;2.80;;;8.00;99.90;;;;;;5072456;28;20050;-64
2021/01/22 04:23:34;;;;;;;4.57;2.92;;;7.90;99.90;;;;;;5071852;28;20052;-66
2021/01/22 04:26:01;;;;;;;4.40;2.75;;;8.00;99.90;;;;;;5070625;28;20131;-66
2021/01/22 04:28:27;;;;;;;5.68;2.75;;;7.90;99.90;;;;;;5068175;28;20045;-65
2021/01/22 04:30:54;;;;;;;3.65;2.25;;;8.00;99.90;;;;;;5072246;28;20490;-66
2021/01/22 04:33:20;;;;;;;4.60;2.78;;;8.00;99.90;;;;;;5067326;28;20051;-66
2021/01/22 04:35:48;;;;;;;4.10;2.50;;;7.90;99.90;;;;;;5067861;28;20040;-66
2021/01/22 04:38:14;;;;;;;3.47;2.33;;;7.90;99.90;;;;;;5071031;28;20052;-65
2021/01/22 04:40:41;;;;;;;6.45;2.50;;;7.80;99.90;;;;;;5070710;28;20090;-66
2021/01/22 04:43:08;;;;;;;5.53;2.60;;;7.80;99.90;;;;;;5069135;28;20741;-66
2021/01/22 04:45:35;;;;;;;4.70;2.60;;;7.80;99.90;;;;;;5072281;28;20498;-65
2021/01/22 04:48:04;;;;;;;5.95;2.70;;;7.80;99.90;;;;;;5070846;28;20453;-65
2021/01/22 04:50:33;;;;;;;6.10;2.95;;;7.90;99.90;;;;;;5072196;28;20048;-65
2021/01/22 04:53:06;;;;;;;4.88;2.78;;;7.90;99.90;;;;;;5070195;28;20040;-65
2021/01/22 04:55:35;;;;;;;4.85;2.53;;;7.90;99.90;;;;;;5072173;28;20049;-66
2021/01/22 04:58:03;;;;;;;4.35;2.47;;;7.90;99.90;;;;;;5070742;28;20044;-65
2021/01/22 05:00:30;;;;;;;3.67;2.30;;;7.80;99.90;;;;;;5071948;28;20040;-64
2021/01/22 05:02:57;;;;;;;4.32;2.55;;;7.90;99.90;;;;;;5071479;28;20071;-66
2021/01/22 05:05:24;;;;;;;5.80;2.38;;;8.00;99.90;;;;;;5071954;28;20128;-65
2021/01/22 05:07:51;;;;;;;6.13;3.28;;;8.00;99.90;;;;;;5071441;28;20055;-65
2021/01/22 05:10:17;;;;;;;3.97;2.60;;;8.00;99.90;;;;;;5071781;28;20045;-66
2021/01/22 05:12:44;;;;;;;4.80;2.85;;;7.90;99.90;;;;;;5071116;28;20053;-65
2021/01/22 05:15:11;;;;;;;7.63;3.30;;;7.90;99.90;;;;;;5071277;28;20098;-65
2021/01/22 05:18:13;;;;;;;6.60;2.85;;;7.80;99.90;;;;;;5071774;28;20051;-66
2021/01/22 05:20:42;;;;;;;6.13;2.90;;;7.60;99.90;;;;;;5006761;28;20456;-66
2021/01/22 05:23:10;;;;;;;5.88;3.00;;;7.60;99.90;;;;;;5070719;28;20048;-65
2021/01/22 05:25:59;;;;;;;4.82;3.20;;;7.60;99.90;;;;;;5053355;28;20483;-66
2021/01/22 05:28:46;;;;;;;4.78;2.78;;;7.60;99.90;;;;;;5066734;28;20178;-66
2021/01/22 05:31:18;;;;;;;5.53;2.90;;;7.50;99.90;;;;;;5070224;28;20055;-65
2021/01/22 05:33:59;;;;;;;10.05;3.50;;;7.50;99.90;;;;;;5068387;28;20127;-65
2021/01/22 05:36:30;;;;;;;6.53;3.30;;;7.40;99.90;;;;;;5066643;28;20098;-64
2021/01/22 05:38:59;;;;;;;5.35;2.63;;;7.30;99.90;;;;;;5071388;28;20067;-66
2021/01/22 05:41:27;;;;;;;4.20;2.60;;;7.30;99.90;;;;;;5070884;28;20048;-66
2021/01/22 05:43:54;;;;;;;7.85;2.60;;;7.30;99.90;;;;;;5077780;28;20592;-66
2021/01/22 05:46:25;;;;;;;12.30;2.75;;;7.30;99.90;;;;;;5070071;28;20044;-66
2021/01/22 05:49:08;;;;;;;7.80;2.70;;;7.30;99.90;;;;;;5069583;28;20048;-65
2021/01/22 05:51:35;;;;;;;7.03;3.30;;;7.30;99.90;;;;;;5071682;28;20690;-66
2021/01/22 05:54:02;;;;;;;6.10;2.88;;;7.40;99.90;;;;;;5071617;28;20415;-65
2021/01/22 05:56:29;;;;;;;7.43;3.25;;;7.40;99.90;;;;;;5071500;28;20059;-67
2021/01/22 05:58:55;;;;;;;5.80;2.67;;;7.40;99.90;;;;;;5062357;28;20072;-66
2021/01/22 06:01:25;;;;;;;5.38;2.83;;;7.50;99.90;;;;;;5059866;28;20052;-65
2021/01/22 06:03:53;;;;;;;4.15;2.72;;;7.50;99.90;;;;;;5063271;28;20430;-66
2021/01/22 06:06:20;;;;;;;8.52;3.20;;;7.50;99.90;;;;;;5066534;28;20084;-65
2021/01/22 06:08:58;;;;;;;6.07;2.90;;;7.50;99.90;;;;;;5054649;28;20060;-65
2021/01/22 06:11:29;;;;;;;4.95;2.63;;;7.50;99.90;;;;;;5066271;28;20160;-66
2021/01/22 06:13:57;;;;;;;5.27;3.00;;;7.50;99.90;;;;;;5059039;28;20051;-65
2021/01/22 06:16:26;;;;;;;5.50;2.75;;;7.50;99.90;;;;;;5058404;28;20075;-66
2021/01/22 06:19:00;;;;;;;5.60;2.55;;;7.50;99.90;;;;;;5070572;28;20048;-65
2021/01/22 06:21:34;;;;;;;5.30;2.70;;;7.40;99.90;;;;;;5052446;28;20123;-65
2021/01/22 06:24:03;;;;;;;3.90;2.40;;;7.40;99.90;;;;;;5066118;28;20483;-66
2021/01/22 06:26:31;;;;;;;5.32;2.65;;;7.40;99.90;;;;;;5063964;28;20048;-65
2021/01/22 06:29:03;;;;;;;6.68;2.88;;;7.40;99.90;;;;;;5064431;28;20131;-64
2021/01/22 06:31:30;;;;;;;5.28;2.45;;;7.40;99.90;;;;;;5063361;28;20071;-66
2021/01/22 06:33:58;;;;;;;5.72;2.60;;;7.40;99.90;;;;;;5059518;28;20090;-65
2021/01/22 06:36:25;;;;;;;5.30;3.00;;;7.40;99.90;;;;;;5070159;28;20080;-65
2021/01/22 06:38:52;;;;;;;4.60;2.83;;;7.40;99.90;;;;;;5070229;28;20051;-65
2021/01/22 06:41:26;;;;;;;7.13;3.05;;;7.40;99.90;;;;;;5064616;28;20092;-65
2021/01/22 06:43:56;;;;;;;7.68;3.25;;;7.40;99.90;;;;;;5072970;28;20432;-65
2021/01/22 06:46:26;;;;;;;9.13;2.47;;;7.50;99.90;;;;;;5070177;28;20487;-66
2021/01/22 06:48:55;;;;;;;8.80;2.70;;;7.60;99.90;;;;;;5070193;28;20061;-66
2021/01/22 06:51:23;;;;;;;5.55;2.50;;;7.60;99.90;;;;;;5070251;28;20056;-69
2021/01/22 06:54:15;;;;;;;7.65;2.53;;;7.60;99.90;;;;;;5070511;28;20802;-67
2021/01/22 06:56:50;;;;;;;4.97;2.90;;;7.60;99.90;;;;;;5048823;28;20491;-67
2021/01/22 06:59:28;;;;;;;6.07;2.58;;;7.70;99.90;;;;;;5051466;28;20057;-67
2021/01/22 07:01:57;;;;;;;6.40;3.10;;;7.60;99.90;;;;;;5054208;28;20430;-66
2021/01/22 07:04:33;;;;;;;4.63;2.60;;;7.60;99.90;;;;;;5054318;28;20053;-66
2021/01/22 07:07:03;;;;;;;6.78;3.47;;;7.70;99.90;;;;;;5056223;28;20095;-65
2021/01/22 07:09:46;;;;;;;6.63;3.25;;;7.70;99.90;;;;;;5036493;28;20410;-65
2021/01/22 07:12:14;;;;;;;5.47;2.65;;;7.70;99.90;;;;;;5071596;28;20045;-65
2021/01/22 07:14:47;;;;;;;4.40;2.22;;;7.80;99.90;;;;;;5068557;28;20044;-66
2021/01/22 07:17:19;;;;;;;8.05;2.90;;;7.80;99.90;;;;;;5055634;28;20048;-65
2021/01/22 07:19:54;;;;;;;5.40;2.80;;;7.80;99.90;;;;;;5073233;28;20449;-66
2021/01/22 07:22:21;;;;;;;4.97;2.50;;;7.90;99.90;;;;;;5071190;28;20049;-66
2021/01/22 07:24:50;;;;;;;3.95;2.63;;;8.10;99.90;;;;;;5073324;28;20056;-66
2021/01/22 07:27:16;;;;;;;4.43;3.15;;;8.10;99.90;;;;;;5060515;28;20059;-66
2021/01/22 07:30:03;;;;;;;6.85;2.53;;;8.20;99.90;;;;;;5073626;28;20107;-67
2021/01/22 07:32:30;;;;;;;4.45;2.67;;;8.20;99.90;;;;;;5065839;28;20048;-66
2021/01/22 07:34:57;;;;;;;3.90;2.00;;;8.30;99.90;;;;;;5064016;28;20047;-64
2021/01/22 07:37:25;;;;;;;4.47;2.17;;;8.30;99.90;;;;;;5065520;28;20726;-65
2021/01/22 07:39:53;;;;;;;4.10;2.28;;;8.30;99.90;;;;;;5066517;28;20414;-65
2021/01/22 07:42:26;;;;;;;4.88;2.25;;;8.50;99.90;;;;;;5064620;28;20054;-65
2021/01/22 07:44:54;;;;;;;4.88;2.15;;;8.50;99.90;;;;;;5081521;28;20045;-65
2021/01/22 07:47:32;;;;;;;5.15;2.53;;;8.50;99.90;;;;;;5072656;28;20406;-65
2021/01/22 07:50:00;;;;;;;4.22;2.40;;;8.60;99.90;;;;;;5063292;28;20101;-65
2021/01/22 07:52:29;;;;;;;6.20;2.50;;;8.60;99.90;;;;;;5072456;28;20044;-66
2021/01/22 07:54:55;;;;;;;4.43;2.10;;;8.70;99.90;;;;;;5071866;28;20277;-66
2021/01/22 07:57:26;;;;;;;4.85;2.55;;;8.70;99.90;;;;;;5051266;28;20066;-66
2021/01/22 07:59:53;;;;;;;3.88;2.30;;;8.80;99.90;;;;;;5072183;28;20383;-66
2021/01/22 08:02:22;;;;;;;5.35;2.47;;;8.80;99.90;;;;;;5068692;28;20568;-66
2021/01/22 08:05:00;;;;;;;4.90;2.33;;;8.80;99.90;;;;;;5071749;28;20095;-66
2021/01/22 08:07:41;;;;;;;4.43;2.17;;;8.80;99.90;;;;;;5063276;28;20439;-66
2021/01/22 08:10:10;;;;;;;4.63;2.28;;;8.80;99.90;;;;;;5061846;28;20127;-67
2021/01/22 08:12:53;;;;;;;4.57;2.30;;;8.90;99.90;;;;;;5055839;28;20488;-66
2021/01/22 08:15:20;;;;;;;4.63;2.13;;;8.90;99.90;;;;;;5059370;28;20051;-67
2021/01/22 08:17:48;;;;;;;4.85;2.33;;;8.90;99.90;;;;;;5062276;28;20411;-66
2021/01/22 08:20:17;;;;;;;4.30;2.70;;;9.00;99.90;;;;;;5071989;28;20072;-66
2021/01/22 08:22:57;;;;;;;6.22;2.75;;;9.00;99.90;;;;;;5071128;28;20048;-66
2021/01/22 08:25:38;;;;;;;5.65;2.35;;;9.10;99.90;;;;;;5072587;28;20180;-66
2021/01/22 08:28:07;;;;;;;4.15;2.70;;;9.20;99.90;;;;;;5069887;28;20406;-65
2021/01/22 08:30:35;;;;;;;4.93;2.30;;;9.20;99.90;;;;;;5048045;28;20050;-65
2021/01/22 08:33:04;;;;;;;4.50;2.30;;;9.20;99.90;;;;;;5069783;28;20040;-68
2021/01/22 08:35:33;;;;;;;4.35;2.40;;;9.30;99.90;;;;;;5071744;28;20135;-67
2021/01/22 08:38:01;;;;;;;4.38;1.98;;;9.30;99.90;;;;;;5071675;28;20048;-66
2021/01/22 08:40:39;;;;;;;6.57;2.70;;;9.30;99.90;;;;;;5071997;28;20074;-66
2021/01/22 08:43:09;;;;;;;5.03;2.60;;;9.30;99.90;;;;;;5069169;28;20044;-66
2021/01/22 08:45:36;;;;;;;6.55;2.40;;;9.40;99.90;;;;;;5079191;28;20465;-66
2021/01/22 08:48:04;;;;;;;7.68;2.70;;;9.40;99.90;;;;;;5070660;28;20384;-67
2021/01/22 08:50:31;;;;;;;5.50;2.50;;;9.40;99.90;;;;;;5063891;28;20044;-67
2021/01/22 08:53:04;;;;;;;6.13;2.47;;;9.50;99.90;;;;;;5069727;28;20171;-68
2021/01/22 08:55:32;;;;;;;4.57;2.30;;;9.50;99.90;;;;;;5071476;28;20044;-66
2021/01/22 08:58:12;;;;;;;5.78;2.38;;;9.60;99.90;;;;;;5071247;28;20066;-66
2021/01/22 09:00:39;;;;;;;5.13;2.47;;;9.60;99.90;;;;;;5070212;28;20056;-66
2021/01/22 09:03:22;;;;;;;10.30;2.60;;;9.60;99.90;;;;;;5071195;28;20131;-66
2021/01/22 09:05:49;;;;;;;4.05;2.70;;;9.60;99.90;;;;;;5070622;28;20084;-66
2021/01/22 09:08:16;;;;;;;8.20;2.65;;;9.60;99.90;;;;;;5071397;28;20037;-66
2021/01/22 09:10:47;;;;;;;5.07;2.25;;;9.60;99.90;;;;;;5071397;28;20509;-66
2021/01/22 09:13:20;;;;;;;4.70;2.38;;;9.50;99.90;;;;;;5071014;28;20048;-65
2021/01/22 09:15:49;;;;;;;6.40;2.80;;;9.60;99.90;;;;;;5070068;28;20049;-66
2021/01/22 09:18:16;;;;;;;4.03;2.67;;;9.50;99.90;;;;;;5070421;28;20494;-65
2021/01/22 09:20:44;;;;;;;10.10;2.67;;;9.60;99.90;;;;;;5070074;28;20045;-66
2021/01/22 09:23:11;;;;;;;5.47;2.50;;;9.50;99.90;;;;;;5070039;28;20113;-65
2021/01/22 09:25:38;;;;;;;4.70;2.38;;;9.60;99.90;;;;;;5052091;28;20060;-66
2021/01/22 09:28:05;;;;;;;7.28;4.10;;;9.50;99.90;;;;;;5067449;28;20556;-66
2021/01/22 09:30:33;;;;;;;5.80;2.35;;;9.60;99.90;;;;;;5070400;28;20510;-66
2021/01/22 09:33:01;;;;;;;4.68;2.92;;;9.60;99.90;;;;;;5069679;28;20098;-66
2021/01/22 09:35:29;;;;;;;5.18;2.42;;;9.70;99.90;;;;;;5071181;28;20040;-65
2021/01/22 09:37:57;;;;;;;5.03;2.47;;;9.80;99.90;;;;;;5068382;28;20062;-65
2021/01/22 09:40:24;;;;;;;8.70;3.55;;;9.90;99.90;;;;;;5070596;28;20044;-66
2021/01/22 09:42:50;;;;;;;5.32;2.60;;;10.00;99.90;;;;;;5071405;28;20502;-66
2021/01/22 09:45:18;;;;;;;5.03;2.60;;;10.10;99.90;;;;;;5076195;28;20060;-67
2021/01/22 09:47:45;;;;;;;5.10;2.25;;;10.30;99.90;;;;;;5066132;28;20082;-67
2021/01/22 09:50:14;;;;;;;8.68;2.65;;;10.30;99.90;;;;;;5071291;28;20044;-67
2021/01/22 09:52:41;;;;;;;5.63;2.60;;;10.40;99.90;;;;;;5070535;28;20109;-68
2021/01/22 09:55:13;;;;;;;4.32;2.65;;;10.40;99.90;;;;;;5071369;28;20110;-67
2021/01/22 09:57:40;;;;;;;8.45;4.13;;;10.50;99.90;;;;;;5068731;28;20427;-66
2021/01/22 10:00:09;;;;;;;8.23;2.88;;;10.50;99.90;;;;;;5070709;28;20585;-65
2021/01/22 10:02:36;;;;;;;4.18;3.00;;;10.60;99.90;;;;;;5069903;28;20127;-67
2021/01/22 10:05:04;;;;;;;8.05;2.95;;;10.60;99.90;;;;;;5070742;28;20386;-67
2021/01/22 10:07:31;;;;;;;4.05;2.60;;;10.70;99.90;;;;;;5064678;28;20054;-66
2021/01/22 10:09:58;;;;;;;3.65;2.70;;;10.80;99.90;;;;;;5070096;28;20058;-66
2021/01/22 10:12:24;;;;;;;5.45;2.83;;;10.80;99.90;;;;;;5069063;28;20384;-66
2021/01/22 10:14:51;;;;;;;4.20;2.67;;;10.80;99.90;;;;;;5069226;28;20274;-66
2021/01/22 10:17:17;;;;;;;5.93;3.30;;;10.90;99.90;;;;;;5068898;28;20427;-66
2021/01/22 10:19:44;;;;;;;9.85;2.80;;;11.00;99.90;;;;;;5069307;28;20084;-68
2021/01/22 10:22:10;;;;;;;7.85;3.20;;;11.10;99.90;;;;;;5068077;28;20071;-68
2021/01/22 10:24:38;;;;;;;6.93;3.40;;;11.20;99.90;;;;;;5069981;28;20063;-68
2021/01/22 10:27:05;;;;;;;7.32;3.38;;;11.30;99.90;;;;;;5070770;28;20040;-68
2021/01/22 10:29:31;;;;;;;9.80;3.70;;;11.40;99.90;;;;;;5061642;28;20048;-68
2021/01/22 10:31:58;;;;;;;4.57;3.35;;;11.70;99.90;;;;;;5070599;28;20048;-67
2021/01/22 10:34:25;;;;;;;5.53;3.40;;;11.90;99.90;;;;;;5069384;28;20076;-68
2021/01/22 10:36:51;;;;;;;7.63;3.58;;;12.10;99.90;;;;;;5074399;28;20045;-68
2021/01/22 10:39:18;;;;;;;6.90;3.67;;;12.20;99.90;;;;;;5076009;28;20044;-66
2021/01/22 10:41:44;;;;;;;6.35;3.88;;;12.40;99.90;;;;;;5091367;28;20155;-67
2021/01/22 10:44:11;;;;;;;4.97;3.67;;;12.50;99.90;;;;;;5058164;28;20048;-65
2021/01/22 10:46:38;;;;;;;4.80;3.20;;;12.40;99.90;;;;;;5076696;28;20102;-66
2021/01/22 10:49:05;;;;;;;4.32;3.30;;;12.60;99.90;;;;;;5077014;28;20040;-66
2021/01/22 10:51:32;;;;;;;7.18;3.58;;;12.70;99.90;;;;;;5075000;28;20139;-68
2021/01/22 10:53:58;;;;;;;6.55;3.97;;;13.20;99.90;;;;;;5076506;28;20047;-67
2021/01/22 10:56:25;;;;;;;4.72;3.35;;;13.50;99.90;;;;;;5074468;28;20491;-66
2021/01/22 10:58:52;;;;;;;5.55;3.80;;;13.90;99.90;;;;;;5076233;28;20055;-68
2021/01/22 11:01:19;;;;;;;6.15;4.40;;;14.10;99.90;;;;;;5075686;28;20083;-66
2021/01/22 11:03:46;;;;;;;8.15;3.85;;;14.50;99.90;;;;;;5076694;28;20052;-66
2021/01/22 11:06:13;;;;;;;5.20;4.63;;;14.40;99.90;;;;;;5075969;28;20047;-67
2021/01/22 11:08:39;;;;;;;5.38;4.03;;;14.10;99.90;;;;;;5077261;28;20084;-68
2021/01/22 11:11:06;;;;;;;6.03;3.95;;;14.30;99.90;;;;;;5057102;28;20087;-67
2021/01/22 11:13:33;;;;;;;5.72;4.18;;;14.50;99.90;;;;;;5076837;28;20048;-69
2021/01/22 11:15:59;;;;;;;6.82;4.22;;;14.80;99.90;;;;;;5074617;28;20135;-68
2021/01/22 11:18:26;;;;;;;8.65;4.80;;;15.30;99.90;;;;;;5057195;28;20048;-67
2021/01/22 11:20:53;;;;;;;6.65;4.35;;;15.80;99.90;;;;;;5076512;28;20490;-66
2021/01/22 11:23:19;;;;;;;8.40;4.80;;;15.80;99.90;;;;;;5075645;28;20087;-66
2021/01/22 11:25:45;;;;;;;5.40;4.50;;;16.30;99.90;;;;;;5076340;28;20469;-67
2021/01/22 11:28:12;;;;;;;7.90;4.65;;;16.10;99.90;;;;;;5075698;28;20040;-65
2021/01/22 11:30:38;;;;;;;4.95;3.70;;;15.90;99.90;;;;;;5075636;28;20056;-65
2021/01/22 11:33:06;;;;;;;6.55;4.70;;;15.70;99.90;;;;;;5074010;28;20044;-66
2021/01/22 11:35:34;;;;;;;4.50;4.03;;;15.60;99.90;;;;;;5076415;28;20045;-68
2021/01/22 11:38:02;;;;;;;7.35;4.43;;;15.60;99.90;;;;;;5074597;28;20399;-67
2021/01/22 11:40:29;;;;;;;4.85;4.10;;;14.90;99.90;;;;;;5076408;28;20048;-67
2021/01/22 11:42:55;;;;;;;7.03;4.30;;;14.30;99.90;;;;;;5073451;28;20414;-67
2021/01/22 11:45:22;;;;;;;6.15;4.57;;;14.40;99.90;;;;;;5057605;28;20064;-67
2021/01/22 11:47:49;;;;;;;6.13;4.70;;;14.20;99.90;;;;;;5071059;28;20048;-68
2021/01/22 11:50:16;;;;;;;11.32;4.05;;;14.10;99.90;;;;;;5054065;28;20056;-68
2021/01/22 11:52:42;;;;;;;7.10;4.78;;;14.30;99.90;;;;;;5054288;28;20052;-67
2021/01/22 11:55:09;;;;;;;9.00;4.57;;;14.30;99.90;;;;;;5072723;28;20071;-66
2021/01/22 11:57:36;;;;;;;8.15;4.25;;;14.30;99.90;;;;;;5070675;28;20050;-68
2021/01/22 12:00:04;;;;;;;5.53;4.50;;;14.40;99.90;;;;;;5063147;28;20053;-69
2021/01/22 12:02:31;;;;;;;7.47;4.40;;;14.10;99.90;;;;;;5065670;28;20094;-68
2021/01/22 12:04:57;;;;;;;8.35;4.03;;;13.90;99.90;;;;;;5071151;28;20091;-66
2021/01/22 12:07:24;;;;;;;7.97;4.60;;;13.90;99.90;;;;;;5070495;28;20143;-67
2021/01/22 12:09:51;;;;;;;13.73;4.88;;;14.20;99.90;;;;;;5089168;28;20106;-66
2021/01/22 12:12:17;;;;;;;10.20;4.32;;;14.60;99.90;;;;;;5071796;28;20477;-67
2021/01/22 12:14:44;;;;;;;5.68;4.35;;;14.80;99.90;;;;;;5071720;28;20075;-67
2021/01/22 12:17:10;;;;;;;6.00;3.97;;;14.70;99.90;;;;;;5053678;28;20036;-66
2021/01/22 12:19:38;;;;;;;5.43;4.50;;;14.90;99.90;;;;;;5062803;28;20048;-66
2021/01/22 12:22:04;;;;;;;6.90;4.60;;;15.30;99.90;;;;;;5064949;28;20072;-68
2021/01/22 12:24:31;;;;;;;6.82;4.40;;;15.60;99.90;;;;;;5071098;28;20055;-66
2021/01/22 12:26:57;;;;;;;7.13;5.50;;;15.80;99.90;;;;;;5071261;28;20054;-67
2021/01/22 12:29:24;;;;;;;6.38;5.78;;;15.90;99.90;;;;;;5071091;28;20405;-67
2021/01/22 12:31:50;;;;;;;9.45;7.05;;;16.10;99.90;;;;;;5071319;28;20049;-68
2021/01/22 12:34:17;;;;;;;8.27;4.72;;;16.50;99.90;;;;;;5066542;28;20069;-67
2021/01/22 12:36:43;;;;;;;7.40;4.90;;;16.70;99.90;;;;;;5062233;28;20063;-66
2021/01/22 12:39:10;;;;;;;7.65;4.90;;;16.50;99.90;;;;;;5070006;28;20041;-68
2021/01/22 12:41:36;;;;;;;6.65;5.00;;;16.80;99.90;;;;;;5068201;28;20485;-65
2021/01/22 12:44:03;;;;;;;6.38;5.20;;;16.80;99.90;;;;;;5070101;28;20051;-67
2021/01/22 12:46:30;;;;;;;8.93;5.57;;;16.20;99.90;;;;;;5070444;28;20105;-66
2021/01/22 12:48:56;;;;;;;10.52;5.35;;;16.20;99.90;;;;;;5071138;28;20588;-67
2021/01/22 12:51:25;;;;;;;7.90;5.18;;;15.90;99.90;;;;;;5071017;28;20045;-66
2021/01/22 12:53:51;;;;;;;8.98;4.70;;;15.70;99.90;;;;;;5066592;28;20040;-67
2021/01/22 12:56:18;;;;;;;5.45;4.78;;;15.50;99.90;;;;;;5063148;28;20048;-66
2021/01/22 12:58:45;;;;;;;5.50;4.72;;;16.10;99.90;;;;;;5066115;28;20101;-65
2021/01/22 13:01:11;;;;;;;5.70;5.05;;;16.60;99.90;;;;;;5057131;28;20079;-68